Time;durP1;ratioP1;P1;durP2;ratioP2;P2;SDS_P1;SDS_P2;PMS_P1;PMS_P2;Temp;Humidity;BMP_temperature;BMP_pressure;BME280_temperature;BME280_humidity;BME280_pressure;Samples;Min_cycle;Max_cycle;Signal;HPM_P1;HPM_P2
2021/11/16 00:00:36;;;;;;;0.20;0.20;;;;;;;3.98;100.00;102128.03;5001787;28;20045;-81
2021/11/16 00:03:10;;;;;;;0.17;0.17;;;;;;;3.76;100.00;102106.63;5010411;28;20053;-81
2021/11/16 00:05:39;;;;;;;0.20;0.20;;;;;;;3.83;100.00;102117.44;5002308;28;20046;-82
2021/11/16 00:08:12;;;;;;;0.20;0.20;;;;;;;3.97;100.00;102112.94;5006742;28;20052;-81
2021/11/16 00:10:41;;;;;;;0.20;0.20;;;;;;;3.88;100.00;102118.50;5004717;28;20497;-82
2021/11/16 00:13:16;;;;;;;0.30;0.30;;;;;;;3.93;100.00;102125.97;5007209;28;20077;-82
2021/11/16 00:15:45;;;;;;;0.20;0.20;;;;;;;3.91;100.00;102123.47;4997583;28;20056;-81
2021/11/16 00:18:22;;;;;;;0.20;0.20;;;;;;;3.82;100.00;102116.56;5031379;28;20060;-81
2021/11/16 00:20:56;;;;;;;0.30;0.30;;;;;;;3.94;100.00;102108.78;5007915;28;20052;-81
2021/11/16 00:23:33;;;;;;;0.20;0.20;;;;;;;3.95;100.00;102107.75;5006100;28;20422;-80
2021/11/16 00:26:09;;;;;;;0.20;0.20;;;;;;;3.88;100.00;102113.09;5000638;28;20506;-81
2021/11/16 00:28:39;;;;;;;0.20;0.20;;;;;;;3.96;100.00;102109.41;5009339;28;20050;-82
2021/11/16 00:31:12;;;;;;;0.20;0.20;;;;;;;3.96;100.00;102112.09;5002927;28;20463;-81
2021/11/16 00:33:46;;;;;;;0.20;0.20;;;;;;;3.98;100.00;102104.66;5004400;28;20050;-81
2021/11/16 00:36:15;;;;;;;0.30;0.30;;;;;;;3.91;100.00;102096.53;5002930;28;20046;-81
2021/11/16 00:38:43;;;;;;;0.20;0.20;;;;;;;3.84;100.00;102086.75;5002129;28;20058;-81
2021/11/16 00:41:17;;;;;;;0.20;0.20;;;;;;;3.86;100.00;102090.09;5001590;28;20061;-81
2021/11/16 00:43:52;;;;;;;0.20;0.20;;;;;;;3.81;100.00;102088.00;5004408;28;20036;-81
2021/11/16 00:46:25;;;;;;;0.20;0.20;;;;;;;3.74;100.00;102082.59;5008970;28;20034;-81
2021/11/16 00:48:53;;;;;;;0.20;0.20;;;;;;;3.73;100.00;102083.59;5002098;28;20509;-81
2021/11/16 00:51:27;;;;;;;0.20;0.20;;;;;;;3.82;100.00;102072.66;5006127;28;20112;-81
2021/11/16 00:54:00;;;;;;;0.20;0.20;;;;;;;3.77;100.00;102078.66;5007471;28;20045;-81
2021/11/16 00:56:33;;;;;;;0.20;0.20;;;;;;;3.74;100.00;102070.97;5004693;28;20046;-81
2021/11/16 00:59:08;;;;;;;0.20;0.20;;;;;;;3.75;100.00;102068.06;5002431;28;20505;-81
2021/11/16 01:01:41;;;;;;;0.20;0.20;;;;;;;3.75;100.00;102068.06;5006939;28;20053;-81
2021/11/16 01:04:15;;;;;;;0.20;0.20;;;;;;;3.78;100.00;102072.22;5006188;28;20050;-81
2021/11/16 01:06:49;;;;;;;0.20;0.20;;;;;;;3.81;100.00;102071.84;5005618;28;20050;-81
2021/11/16 01:09:24;;;;;;;0.20;0.20;;;;;;;3.70;100.00;102065.16;5007037;28;20053;-81
2021/11/16 01:11:57;;;;;;;0.20;0.20;;;;;;;3.71;100.00;102063.28;5006211;28;20058;-81
2021/11/16 01:14:32;;;;;;;0.20;0.20;;;;;;;3.87;100.00;102062.97;5005467;28;20053;-81
2021/11/16 01:17:01;;;;;;;0.20;0.20;;;;;;;3.75;100.00;102067.25;5033205;28;20056;-81
2021/11/16 01:19:35;;;;;;;0.20;0.20;;;;;;;3.77;100.00;102062.50;5003428;28;20053;-82
2021/11/16 01:22:04;;;;;;;0.20;0.20;;;;;;;3.73;100.00;102055.88;5002905;28;20053;-81
2021/11/16 01:24:37;;;;;;;0.22;0.22;;;;;;;3.77;100.00;102051.75;5006055;28;20054;-81
2021/11/16 01:27:14;;;;;;;0.20;0.20;;;;;;;3.75;100.00;102048.41;5004953;28;20145;-81
2021/11/16 01:29:50;;;;;;;0.30;0.30;;;;;;;3.74;100.00;102052.13;5011315;28;20050;-81
2021/11/16 01:32:29;;;;;;;0.15;0.15;;;;;;;3.64;100.00;102044.41;5008816;28;20069;-81
2021/11/16 01:35:04;;;;;;;0.20;0.20;;;;;;;3.71;100.00;102047.97;4998640;28;20054;-82
2021/11/16 01:37:38;;;;;;;0.20;0.20;;;;;;;3.63;100.00;102039.22;5007536;28;20049;-82
2021/11/16 01:40:11;;;;;;;0.20;0.20;;;;;;;3.57;100.00;102033.59;5007862;28;20050;-81
2021/11/16 01:42:45;;;;;;;0.30;0.30;;;;;;;3.61;100.00;102038.63;5004923;28;20046;-81
2021/11/16 01:45:20;;;;;;;0.20;0.20;;;;;;;3.70;100.00;102032.00;5010312;28;20072;-81
2021/11/16 01:47:54;;;;;;;0.20;0.20;;;;;;;3.65;100.00;102027.25;5008083;28;20053;-80
2021/11/16 01:50:24;;;;;;;0.20;0.20;;;;;;;3.75;100.00;102029.56;5007828;28;20073;-81
2021/11/16 01:52:57;;;;;;;0.20;0.20;;;;;;;3.75;100.00;102024.16;5007641;28;20046;-81
2021/11/16 01:55:30;;;;;;;0.20;0.20;;;;;;;3.67;100.00;102027.03;5005751;28;20054;-81
2021/11/16 01:58:04;;;;;;;0.20;0.20;;;;;;;3.61;100.00;102014.38;5003905;28;20046;-81
2021/11/16 02:00:36;;;;;;;0.10;0.10;;;;;;;3.65;100.00;102019.16;5008327;28;20053;-81
2021/11/16 02:03:11;;;;;;;0.20;0.20;;;;;;;3.69;100.00;102025.81;5002553;28;20058;-81
2021/11/16 02:05:50;;;;;;;0.20;0.20;;;;;;;3.84;100.00;102022.13;5002537;28;20077;-80
2021/11/16 02:08:25;;;;;;;0.20;0.20;;;;;;;3.71;100.00;102004.06;5007286;28;20475;-81
2021/11/16 02:10:58;;;;;;;0.15;0.15;;;;;;;3.69;100.00;102014.22;5008291;28;20054;-81
2021/11/16 02:13:31;;;;;;;0.20;0.20;;;;;;;3.68;100.00;102017.94;5015263;28;20049;-81
2021/11/16 02:16:06;;;;;;;0.20;0.20;;;;;;;3.61;100.00;102006.31;5003462;28;20073;-80
2021/11/16 02:18:40;;;;;;;0.20;0.20;;;;;;;3.67;100.00;102014.38;5007727;28;20041;-80
2021/11/16 02:21:11;;;;;;;0.20;0.20;;;;;;;3.66;100.00;102015.44;5007287;28;20053;-81
2021/11/16 02:23:40;;;;;;;0.20;0.20;;;;;;;3.64;100.00;102008.59;5008289;28;20073;-81
2021/11/16 02:26:14;;;;;;;0.20;0.20;;;;;;;3.64;100.00;102005.91;5005884;28;20438;-81
2021/11/16 02:28:47;;;;;;;0.20;0.20;;;;;;;3.68;100.00;102009.84;5024268;28;20042;-81
2021/11/16 02:31:20;;;;;;;0.20;0.20;;;;;;;3.61;100.00;102009.00;5004722;28;20046;-81
2021/11/16 02:33:53;;;;;;;0.20;0.20;;;;;;;3.63;100.00;102002.38;5004979;28;20049;-80
2021/11/16 02:37:17;;;;;;;0.30;0.30;;;;;;;3.57;100.00;102004.00;5004660;28;20062;-80
2021/11/16 02:39:53;;;;;;;0.20;0.20;;;;;;;3.77;100.00;101995.19;5000814;28;20050;-81
2021/11/16 02:42:27;;;;;;;0.20;0.20;;;;;;;3.57;100.00;101985.16;5005784;28;20051;-81
2021/11/16 02:45:00;;;;;;;0.20;0.20;;;;;;;3.60;100.00;101992.00;5007711;28;20053;-80
2021/11/16 02:47:34;;;;;;;0.20;0.20;;;;;;;3.66;100.00;101988.53;5000886;28;20057;-81
2021/11/16 02:50:08;;;;;;;0.10;0.10;;;;;;;3.56;100.00;101986.22;5004181;28;20058;-81
2021/11/16 02:52:42;;;;;;;0.20;0.20;;;;;;;3.57;100.00;101982.47;5005646;28;20061;-81
2021/11/16 02:55:17;;;;;;;0.20;0.20;;;;;;;3.61;100.00;101979.38;5006493;28;20065;-81
2021/11/16 02:57:45;;;;;;;0.20;0.20;;;;;;;3.72;100.00;101979.63;5009242;28;20053;-80
2021/11/16 03:00:19;;;;;;;0.20;0.20;;;;;;;3.76;100.00;101977.38;5001807;28;20077;-81
2021/11/16 03:02:54;;;;;;;0.20;0.20;;;;;;;3.64;100.00;101973.59;5006291;28;20042;-81
2021/11/16 03:05:31;;;;;;;0.20;0.20;;;;;;;3.55;100.00;101971.09;5011946;28;20481;-80
2021/11/16 03:08:00;;;;;;;0.20;0.20;;;;;;;3.49;100.00;101957.59;5005908;28;20046;-81
2021/11/16 03:10:34;;;;;;;0.20;0.20;;;;;;;3.54;100.00;101963.22;5008271;28;20080;-81
2021/11/16 03:13:08;;;;;;;0.20;0.20;;;;;;;3.53;100.00;101962.38;5005772;28;20042;-81
2021/11/16 03:15:36;;;;;;;0.20;0.20;;;;;;;3.49;100.00;101946.81;5008265;28;20058;-80
2021/11/16 03:18:09;;;;;;;0.20;0.20;;;;;;;3.49;100.00;101946.81;5004738;28;20061;-80
2021/11/16 03:20:44;;;;;;;0.20;0.20;;;;;;;3.42;100.00;101949.47;4999358;28;20402;-81
2021/11/16 03:23:19;;;;;;;0.20;0.20;;;;;;;3.42;100.00;101954.88;5000090;28;20414;-80
2021/11/16 03:25:52;;;;;;;0.20;0.20;;;;;;;3.40;100.00;101943.50;5008957;28;20472;-80
2021/11/16 03:28:28;;;;;;;0.20;0.20;;;;;;;3.42;100.00;101951.34;5007408;28;20065;-81
2021/11/16 03:31:09;;;;;;;0.20;0.20;;;;;;;3.59;100.00;101949.97;5008536;28;20064;-81
2021/11/16 03:33:42;;;;;;;0.20;0.20;;;;;;;3.47;100.00;101947.03;5009424;28;20046;-81
2021/11/16 03:36:17;;;;;;;0.20;0.20;;;;;;;3.58;100.00;101954.53;5007109;28;20047;-81
2021/11/16 03:38:51;;;;;;;0.20;0.20;;;;;;;3.57;100.00;101952.03;5002109;28;20049;-81
2021/11/16 03:41:26;;;;;;;0.15;0.15;;;;;;;3.67;100.00;101954.34;5009019;28;20058;-81
2021/11/16 03:44:00;;;;;;;0.20;0.20;;;;;;;3.57;100.00;101955.53;5008161;28;20053;-80
2021/11/16 03:46:33;;;;;;;0.20;0.20;;;;;;;3.48;100.00;101948.69;5003695;28;20058;-81
2021/11/16 03:49:06;;;;;;;0.20;0.20;;;;;;;3.46;100.00;101948.06;5002559;28;20042;-81
2021/11/16 03:51:41;;;;;;;0.20;0.20;;;;;;;3.60;100.00;101946.25;5002938;28;20058;-81
2021/11/16 03:54:15;;;;;;;0.20;0.20;;;;;;;3.51;100.00;101939.41;5009946;28;20050;-81
2021/11/16 03:56:50;;;;;;;0.20;0.20;;;;;;;3.63;100.00;101940.44;5008146;28;20497;-81
2021/11/16 03:59:19;;;;;;;0.10;0.10;;;;;;;3.56;100.00;101940.44;4994689;28;20046;-81
2021/11/16 04:01:52;;;;;;;0.20;0.20;;;;;;;3.63;100.00;101943.13;5008417;28;20054;-80
2021/11/16 04:04:26;;;;;;;0.20;0.20;;;;;;;3.62;100.00;101944.19;5011772;28;20042;-81
2021/11/16 04:06:59;;;;;;;0.20;0.20;;;;;;;3.50;100.00;101938.53;5006748;28;20050;-81
2021/11/16 04:09:27;;;;;;;0.20;0.20;;;;;;;3.75;100.00;101935.31;5007024;28;20046;-80
2021/11/16 04:12:02;;;;;;;0.20;0.20;;;;;;;3.62;100.00;101940.66;5005209;28;20069;-81
2021/11/16 04:14:31;;;;;;;0.20;0.20;;;;;;;3.53;100.00;101937.31;5006593;28;20056;-80
2021/11/16 04:17:05;;;;;;;0.20;0.20;;;;;;;3.54;100.00;101928.22;5002084;28;20058;-81
2021/11/16 04:19:39;;;;;;;0.20;0.20;;;;;;;3.65;100.00;101929.50;5026196;28;20469;-80
2021/11/16 04:22:07;;;;;;;0.20;0.20;;;;;;;3.49;100.00;101923.41;5005892;28;20483;-81
2021/11/16 04:24:40;;;;;;;0.20;0.20;;;;;;;3.47;100.00;101922.81;5007952;28;20046;-81
2021/11/16 04:27:15;;;;;;;0.28;0.28;;;;;;;3.54;100.00;101917.44;5001392;28;20050;-81
2021/11/16 04:29:48;;;;;;;0.20;0.20;;;;;;;3.69;100.00;101931.56;5000492;28;20045;-81
2021/11/16 04:32:21;;;;;;;0.20;0.20;;;;;;;3.58;100.00;101924.09;5007498;28;20415;-80
2021/11/16 04:34:54;;;;;;;0.20;0.20;;;;;;;3.54;100.00;101915.56;5002361;28;20061;-81
2021/11/16 04:37:27;;;;;;;0.20;0.20;;;;;;;3.54;100.00;101912.88;5025211;28;20050;-81
2021/11/16 04:40:01;;;;;;;0.20;0.20;;;;;;;3.51;100.00;101909.78;4997998;28;20050;-81
2021/11/16 04:42:36;;;;;;;0.20;0.20;;;;;;;3.46;100.00;101906.88;5006038;28;20395;-81
2021/11/16 04:45:14;;;;;;;0.20;0.20;;;;;;;3.38;100.00;101905.16;5004342;28;20062;-82
2021/11/16 04:47:49;;;;;;;0.20;0.20;;;;;;;3.40;100.00;101901.25;5007466;28;20060;-81
2021/11/16 04:50:29;;;;;;;0.22;0.22;;;;;;;3.38;100.00;101911.41;5007554;28;20038;-81
2021/11/16 04:53:22;;;;;;;0.20;0.20;;;;;;;3.58;100.00;101906.06;5001284;28;20050;-81
2021/11/16 04:55:57;;;;;;;0.20;0.20;;;;;;;3.44;100.00;101903.53;5038803;28;20049;-81
2021/11/16 05:04:16;;;;;;;0.20;0.20;;;;;;;3.50;100.00;101908.94;5009707;28;20058;-81
2021/11/16 05:06:51;;;;;;;0.20;0.20;;;;;;;3.66;100.00;101902.38;5005842;28;20062;-81
2021/11/16 05:09:20;;;;;;;0.20;0.20;;;;;;;3.56;100.00;101910.00;5007514;28;20064;-81
2021/11/16 05:11:55;;;;;;;0.20;0.20;;;;;;;3.51;100.00;101909.78;5013723;28;20046;-81
2021/11/16 05:14:24;;;;;;;0.20;0.20;;;;;;;3.42;100.00;101900.22;5007604;28;20045;-82
2021/11/16 05:16:57;;;;;;;0.25;0.20;;;;;;;3.45;100.00;101905.19;5000725;28;20054;-81
2021/11/16 05:19:26;;;;;;;0.30;0.30;;;;;;;3.60;100.00;101905.03;5004005;28;20065;-81
2021/11/16 05:21:59;;;;;;;0.20;0.20;;;;;;;3.56;100.00;101904.59;5013013;28;20533;-81
2021/11/16 05:24:32;;;;;;;0.20;0.20;;;;;;;3.54;100.00;101904.81;5005237;28;20050;-81
2021/11/16 05:27:08;;;;;;;0.20;0.20;;;;;;;3.47;100.00;101903.16;5006581;28;20065;-81
2021/11/16 05:29:43;;;;;;;0.20;0.20;;;;;;;3.42;100.00;101894.84;5007622;28;20050;-81
2021/11/16 05:32:11;;;;;;;0.20;0.20;;;;;;;3.44;100.00;101901.69;5025863;28;20058;-82
2021/11/16 05:34:44;;;;;;;0.10;0.10;;;;;;;3.42;100.00;101897.53;5008793;28;20038;-82
2021/11/16 05:37:12;;;;;;;0.20;0.20;;;;;;;3.40;100.00;101903.13;5009933;28;20065;-81
2021/11/16 05:39:46;;;;;;;0.20;0.20;;;;;;;3.41;100.00;101899.38;5011182;28;20371;-82
2021/11/16 05:42:14;;;;;;;0.20;0.20;;;;;;;3.42;100.00;101905.63;5008633;28;20061;-82
2021/11/16 05:44:48;;;;;;;0.20;0.20;;;;;;;3.46;100.00;101902.31;5009842;28;20490;-81
2021/11/16 05:47:22;;;;;;;0.20;0.20;;;;;;;3.60;100.00;101902.34;5003462;28;20497;-80
2021/11/16 05:49:50;;;;;;;0.20;0.20;;;;;;;3.54;100.00;101899.44;5042382;28;20050;-81
2021/11/16 05:52:24;;;;;;;0.20;0.20;;;;;;;3.53;100.00;101900.47;5039880;28;20061;-81
2021/11/16 05:54:57;;;;;;;0.20;0.20;;;;;;;3.50;100.00;101897.34;5007979;28;20057;-81
2021/11/16 05:57:25;;;;;;;0.30;0.30;;;;;;;3.49;100.00;101899.19;5004799;28;20054;-81
2021/11/16 06:00:00;;;;;;;0.20;0.20;;;;;;;3.52;100.00;101898.81;5002026;28;20050;-82
2021/11/16 06:02:36;;;;;;;0.20;0.20;;;;;;;3.73;100.00;101907.78;5014505;28;20509;-81
2021/11/16 06:05:10;;;;;;;0.20;0.20;;;;;;;3.69;100.00;101895.75;5008711;28;20057;-81
2021/11/16 06:07:43;;;;;;;0.30;0.30;;;;;;;3.64;100.00;101890.97;5002910;28;20057;-82
2021/11/16 06:10:16;;;;;;;0.20;0.20;;;;;;;3.57;100.00;101893.63;5001799;28;20061;-82
2021/11/16 06:12:50;;;;;;;0.20;0.20;;;;;;;3.47;100.00;101878.94;5004891;28;20515;-81
2021/11/16 06:15:25;;;;;;;0.30;0.30;;;;;;;3.43;100.00;101891.13;5010266;28;20041;-81
2021/11/16 06:17:53;;;;;;;0.20;0.20;;;;;;;3.36;100.00;101880.34;5019781;28;20050;-82
2021/11/16 06:20:23;;;;;;;0.30;0.30;;;;;;;3.27;100.00;101863.53;5006448;28;20054;-81
2021/11/16 06:22:56;;;;;;;0.20;0.20;;;;;;;3.34;100.00;101871.63;5041038;28;20513;-82
2021/11/16 06:25:29;;;;;;;0.20;0.20;;;;;;;3.39;100.00;101880.75;5005639;28;20061;-81
2021/11/16 06:28:03;;;;;;;0.22;0.22;;;;;;;3.55;100.00;101886.81;5001153;28;20054;-82
2021/11/16 06:30:37;;;;;;;0.20;0.20;;;;;;;3.43;100.00;101889.25;5009277;28;20060;-82
2021/11/16 06:33:11;;;;;;;0.20;0.20;;;;;;;3.40;100.00;101895.06;5036142;28;20058;-81
2021/11/16 06:35:44;;;;;;;0.20;0.20;;;;;;;3.38;100.00;101889.03;5011306;28;20065;-81
2021/11/16 06:38:12;;;;;;;0.20;0.20;;;;;;;3.40;100.00;101895.06;5005207;28;20050;-81
2021/11/16 06:40:47;;;;;;;0.15;0.15;;;;;;;3.35;100.00;101900.19;5031197;28;20046;-82
2021/11/16 06:43:22;;;;;;;0.22;0.22;;;;;;;3.35;100.00;101903.72;5003832;28;20050;-82
2021/11/16 06:46:00;;;;;;;0.20;0.20;;;;;;;3.36;100.00;101910.75;5004372;28;20058;-81
2021/11/16 06:48:29;;;;;;;0.20;0.20;;;;;;;3.39;100.00;101906.84;5003752;28;20058;-81
2021/11/16 06:51:02;;;;;;;0.20;0.20;;;;;;;3.42;100.00;101911.00;5006563;28;20079;-81
2021/11/16 06:53:37;;;;;;;0.20;0.20;;;;;;;3.39;100.00;101896.88;5006990;28;20054;-82
2021/11/16 06:56:10;;;;;;;0.20;0.20;;;;;;;3.36;100.00;101905.38;5008865;28;20084;-82
2021/11/16 06:58:44;;;;;;;0.15;0.15;;;;;;;3.37;100.00;101901.66;5004887;28;20053;-81
2021/11/16 07:01:18;;;;;;;0.20;0.20;;;;;;;3.42;100.00;101897.53;5003818;28;20056;-81
2021/11/16 07:03:53;;;;;;;0.20;0.20;;;;;;;3.45;100.00;101902.50;5001875;28;20804;-82
2021/11/16 07:06:28;;;;;;;0.20;0.20;;;;;;;3.43;100.00;101896.50;5005704;28;20061;-82
2021/11/16 07:09:02;;;;;;;0.22;0.22;;;;;;;3.53;100.00;101900.47;5009284;28;20049;-81
2021/11/16 07:11:44;;;;;;;0.20;0.20;;;;;;;3.47;100.00;101900.47;5010097;28;20049;-82
2021/11/16 07:14:19;;;;;;;0.20;0.20;;;;;;;3.47;100.00;101900.47;5009365;28;20064;-81
2021/11/16 07:17:01;;;;;;;0.20;0.20;;;;;;;3.50;100.00;101908.13;5005160;28;20061;-82
2021/11/16 07:19:37;;;;;;;0.10;0.10;;;;;;;3.48;100.00;101905.63;5003372;28;20058;-81
2021/11/16 07:22:09;;;;;;;0.10;0.10;;;;;;;3.45;100.00;101913.28;5007624;28;20042;-81
2021/11/16 07:24:45;;;;;;;0.20;0.20;;;;;;;3.61;100.00;101920.16;5007012;28;20533;-81
2021/11/16 07:27:20;;;;;;;0.20;0.20;;;;;;;3.49;100.00;101909.16;5003457;28;20058;-82
2021/11/16 07:29:57;;;;;;;0.22;0.22;;;;;;;3.47;100.00;101916.59;5006925;28;20038;-82
2021/11/16 07:32:42;;;;;;;0.10;0.10;;;;;;;3.45;100.00;101922.16;5011992;28;20041;-82
2021/11/16 07:35:19;;;;;;;0.20;0.20;;;;;;;3.42;100.00;101914.50;5009221;28;20077;-81
2021/11/16 07:37:48;;;;;;;0.30;0.30;;;;;;;3.38;100.00;101919.47;5004804;28;21875;-81
2021/11/16 07:40:23;;;;;;;0.20;0.20;;;;;;;3.52;100.00;101914.97;5003693;28;20406;-81
2021/11/16 07:42:53;;;;;;;0.20;0.20;;;;;;;3.61;100.00;101920.16;5001102;28;20108;-80
2021/11/16 07:45:29;;;;;;;0.20;0.20;;;;;;;3.49;100.00;101914.53;5002431;28;20410;-81
2021/11/16 07:48:01;;;;;;;0.28;0.28;;;;;;;3.46;100.00;101906.88;5000378;28;20486;-80
2021/11/16 07:50:42;;;;;;;0.20;0.20;;;;;;;3.41;100.00;101912.84;5004625;28;20406;-81
2021/11/16 07:53:19;;;;;;;0.20;0.20;;;;;;;3.37;100.00;101909.72;5004096;28;20061;-80
2021/11/16 07:55:59;;;;;;;0.20;0.20;;;;;;;3.41;100.00;101915.53;5006859;28;20081;-80
2021/11/16 07:58:35;;;;;;;0.10;0.10;;;;;;;3.42;100.00;101906.44;5006136;28;20045;-80
2021/11/16 08:01:14;;;;;;;0.20;0.20;;;;;;;3.50;100.00;101913.50;5020173;28;20753;-80
2021/11/16 08:03:51;;;;;;;0.22;0.22;;;;;;;3.47;100.00;101908.53;5006380;28;20434;-80
2021/11/16 08:06:31;;;;;;;0.30;0.30;;;;;;;3.49;100.00;101899.19;5005501;28;20397;-81
2021/11/16 08:09:16;;;;;;;0.20;0.20;;;;;;;3.52;100.00;101904.19;5009183;28;20045;-81
2021/11/16 08:11:54;;;;;;;0.20;0.20;;;;;;;3.50;100.00;101900.03;5007420;28;20050;-81
2021/11/16 08:14:27;;;;;;;;;;;;;;;3.51;100.00;101907.09;5005035;28;20661;-80
2021/11/16 08:16:59;;;;;;;0.17;0.17;;;;;;;3.45;100.00;101906.03;4998955;28;19929;-80
2021/11/16 08:19:35;;;;;;;0.20;0.20;;;;;;;3.49;100.00;101899.19;4985163;28;20663;-81
2021/11/16 08:22:11;;;;;;;0.20;0.20;;;;;;;3.51;100.00;101896.34;4986402;28;20053;-81
2021/11/16 08:24:48;;;;;;;0.20;0.20;;;;;;;3.54;100.00;101887.84;4986705;28;20062;-81
2021/11/16 08:27:24;;;;;;;0.30;0.30;;;;;;;3.50;100.00;101882.03;4995263;28;20061;-81
2021/11/16 08:30:01;;;;;;;0.20;0.20;;;;;;;3.56;100.00;101892.00;4986880;28;20069;-81
2021/11/16 08:32:38;;;;;;;0.15;0.15;;;;;;;3.58;100.00;101899.88;4987583;28;20076;-81
2021/11/16 08:35:15;;;;;;;0.20;0.20;;;;;;;3.49;100.00;101887.63;4989542;28;20065;-80
2021/11/16 08:37:50;;;;;;;0.20;0.20;;;;;;;3.54;100.00;101891.34;4989770;28;20050;-80
2021/11/16 08:40:26;;;;;;;0.20;0.20;;;;;;;3.57;100.00;101888.25;4984618;28;20065;-83
2021/11/16 08:43:01;;;;;;;0.30;0.30;;;;;;;3.72;100.00;101884.56;5006569;28;20072;-80
2021/11/16 08:45:31;;;;;;;0.17;0.17;;;;;;;3.64;100.00;101880.19;4996305;28;20046;-81
2021/11/16 08:48:10;;;;;;;0.20;0.20;;;;;;;3.63;100.00;101883.09;4996818;28;20054;-80
2021/11/16 08:50:42;;;;;;;0.22;0.22;;;;;;;3.59;100.00;101882.69;4993189;28;20069;-81
2021/11/16 08:53:13;;;;;;;0.17;0.17;;;;;;;3.58;100.00;101889.09;4991329;28;20058;-81
2021/11/16 08:55:47;;;;;;;0.20;0.20;;;;;;;3.68;100.00;101880.63;4988900;28;20046;-81
2021/11/16 08:58:16;;;;;;;0.28;0.28;;;;;;;3.61;100.00;101877.09;4985393;28;20497;-82
2021/11/16 09:00:52;;;;;;;0.20;0.20;;;;;;;3.52;100.00;101879.13;4985867;28;20054;-80
2021/11/16 09:03:29;;;;;;;0.10;0.10;;;;;;;3.52;100.00;101879.97;4996217;28;20046;-81
2021/11/16 09:06:14;;;;;;;0.20;0.20;;;;;;;3.52;100.00;101871.06;4995744;28;20061;-81
2021/11/16 09:09:02;;;;;;;0.20;0.20;;;;;;;3.55;100.00;101871.50;4997286;28;20300;-81
2021/11/16 09:11:35;;;;;;;0.20;0.20;;;;;;;3.58;100.00;101864.88;4993109;28;20060;-81
2021/11/16 09:14:13;;;;;;;0.20;0.20;;;;;;;3.53;100.00;101859.25;4986824;28;20490;-81
2021/11/16 09:16:46;;;;;;;0.20;0.20;;;;;;;3.69;100.00;101866.13;4984294;28;20057;-80
2021/11/16 09:19:31;;;;;;;0.20;0.20;;;;;;;3.62;100.00;101866.13;4988717;28;20053;-81
2021/11/16 09:22:15;;;;;;;0.20;0.20;;;;;;;3.55;100.00;101857.22;4995647;28;20050;-82
2021/11/16 09:24:50;;;;;;;0.17;0.17;;;;;;;3.54;100.00;101860.94;4992733;28;20053;-81
2021/11/16 09:27:39;;;;;;;0.20;0.20;;;;;;;3.55;100.00;101859.91;4993220;28;20058;-81
2021/11/16 09:30:14;;;;;;;0.20;0.20;;;;;;;3.55;100.00;101871.50;4989836;28;20054;-80
2021/11/16 09:33:00;;;;;;;0.20;0.20;;;;;;;3.51;100.00;101853.28;4992705;28;20049;-80
2021/11/16 09:35:49;;;;;;;0.20;0.20;;;;;;;3.61;100.00;101859.06;4990817;28;20061;-81
2021/11/16 09:38:44;;;;;;;0.20;0.20;;;;;;;3.62;100.00;101860.75;4994066;28;20725;-81
2021/11/16 09:41:30;;;;;;;0.20;0.20;;;;;;;3.52;100.00;101853.06;4991843;28;20061;-81
2021/11/16 09:44:08;;;;;;;0.20;0.20;;;;;;;3.54;100.00;101855.53;4993521;28;20079;-81
2021/11/16 09:46:44;;;;;;;0.20;0.20;;;;;;;3.51;100.00;101858.66;4991784;28;20061;-80
2021/11/16 09:49:24;;;;;;;0.20;0.20;;;;;;;3.56;100.00;101853.47;4989033;28;20050;-80
2021/11/16 09:52:02;;;;;;;0.20;0.20;;;;;;;3.62;100.00;101854.50;4993190;28;20045;-81
2021/11/16 09:54:52;;;;;;;0.20;0.20;;;;;;;3.67;100.00;101850.16;4999892;28;20498;-81
2021/11/16 09:57:24;;;;;;;0.20;0.20;;;;;;;3.68;100.00;101846.44;4994635;28;20049;-80
2021/11/16 10:00:04;;;;;;;0.20;0.20;;;;;;;3.66;100.00;101848.53;4993770;28;20979;-81
2021/11/16 10:02:40;;;;;;;0.20;0.20;;;;;;;3.66;100.00;101856.59;4989771;28;20060;-81
2021/11/16 10:05:16;;;;;;;0.20;0.20;;;;;;;3.66;100.00;101850.38;4991234;28;20643;-80
2021/11/16 10:07:51;;;;;;;0.30;0.30;;;;;;;3.76;100.00;101848.13;4992014;28;20062;-79
2021/11/16 10:10:28;;;;;;;0.20;0.20;;;;;;;3.66;100.00;101835.06;4983416;28;20068;-79
2021/11/16 10:13:07;;;;;;;0.30;0.30;;;;;;;3.68;100.00;101842.94;4993023;28;20057;-79
2021/11/16 10:15:43;;;;;;;0.20;0.20;;;;;;;3.65;100.00;101830.72;4991499;28;20076;-79
2021/11/16 10:18:19;;;;;;;0.20;0.20;;;;;;;3.65;100.00;101828.00;5002378;28;20056;-80
2021/11/16 10:20:53;;;;;;;0.28;0.28;;;;;;;3.60;100.00;101822.41;4994458;28;20049;-79
2021/11/16 10:23:31;;;;;;;0.13;0.13;;;;;;;3.65;100.00;101824.50;5018172;28;20053;-79
2021/11/16 10:26:08;;;;;;;0.20;0.20;;;;;;;3.63;100.00;101816.63;4992750;28;20061;-79
2021/11/16 10:28:39;;;;;;;0.20;0.20;;;;;;;3.68;100.00;101814.13;4998252;28;20766;-79
2021/11/16 10:31:13;;;;;;;0.20;0.20;;;;;;;3.69;100.00;101796.97;4991195;28;20402;-80
2021/11/16 10:33:49;;;;;;;0.20;0.20;;;;;;;3.71;100.00;101805.66;4996519;28;20046;-79
2021/11/16 10:36:23;;;;;;;0.55;0.30;;;;;;;3.69;100.00;101794.28;4997172;28;20053;-79
2021/11/16 10:38:56;;;;;;;0.20;0.20;;;;;;;3.74;100.00;101782.88;4993636;28;20054;-79
2021/11/16 10:41:34;;;;;;;0.20;0.20;;;;;;;3.71;100.00;101775.22;4993889;28;20058;-79
2021/11/16 10:44:08;;;;;;;;;;;;;;;3.70;100.00;101769.00;4998232;28;20841;-79
2021/11/16 10:46:38;;;;;;;0.20;0.20;;;;;;;3.75;100.00;101766.50;4991521;28;19929;-79
2021/11/16 10:49:14;;;;;;;0.30;0.30;;;;;;;3.80;100.00;101763.22;4993701;28;20061;-79
2021/11/16 10:51:45;;;;;;;0.20;0.20;;;;;;;3.87;100.00;101763.22;4997376;28;20049;-79
2021/11/16 10:54:19;;;;;;;0.30;0.30;;;;;;;3.86;100.00;101766.94;4994297;28;20046;-79
2021/11/16 10:56:57;;;;;;;0.20;0.20;;;;;;;3.87;100.00;101757.81;4986695;28;20064;-79
2021/11/16 10:59:35;;;;;;;0.20;0.20;;;;;;;3.87;100.00;101752.44;4993361;28;20050;-79
2021/11/16 11:02:18;;;;;;;0.20;0.20;;;;;;;3.85;100.00;101747.25;4995517;28;20865;-82
2021/11/16 11:04:46;;;;;;;0.20;0.20;;;;;;;3.88;100.00;101749.53;4994571;28;20053;-81
2021/11/16 11:07:22;;;;;;;0.20;0.20;;;;;;;3.89;100.00;101735.03;4992408;28;20058;-82
2021/11/16 11:09:58;;;;;;;0.20;0.20;;;;;;;3.94;100.00;101736.28;4994929;28;20053;-79
2021/11/16 11:12:33;;;;;;;0.20;0.20;;;;;;;3.96;100.00;101739.56;4996991;28;20065;-81
2021/11/16 11:15:32;;;;;;;0.20;0.20;;;;;;;3.92;100.00;101729.22;4990492;28;20054;-81
2021/11/16 11:18:07;;;;;;;0.20;0.20;;;;;;;3.98;100.00;101732.94;4992302;28;20053;-80
2021/11/16 11:20:38;;;;;;;0.20;0.20;;;;;;;4.02;100.00;101726.09;4989632;28;20062;-79
2021/11/16 11:23:26;;;;;;;0.10;0.10;;;;;;;3.99;100.00;101717.59;4994661;28;20498;-82
2021/11/16 11:26:37;;;;;;;0.20;0.20;;;;;;;4.05;100.00;101712.19;4991945;28;20057;-81
2021/11/16 11:29:34;;;;;;;0.20;0.20;;;;;;;4.04;100.00;101710.53;4994365;28;20041;-81
2021/11/16 11:32:17;;;;;;;0.30;0.30;;;;;;;4.05;100.00;101708.69;4994628;28;20057;-82
2021/11/16 11:34:52;;;;;;;0.30;0.30;;;;;;;4.15;100.00;101706.38;4983685;28;20104;-81
2021/11/16 11:37:28;;;;;;;0.20;0.20;;;;;;;4.11;100.00;101707.00;4997072;28;20049;-81
2021/11/16 11:40:06;;;;;;;0.20;0.20;;;;;;;4.06;100.00;101704.94;4997027;28;20065;-80
2021/11/16 11:42:37;;;;;;;0.20;0.20;;;;;;;4.11;100.00;101693.53;4988125;28;20058;-80
2021/11/16 11:45:20;;;;;;;0.20;0.20;;;;;;;4.02;100.00;101688.38;5000960;28;20052;-80
2021/11/16 11:47:50;;;;;;;0.10;0.10;;;;;;;4.01;100.00;101684.03;4998114;28;20049;-81
2021/11/16 11:50:28;;;;;;;0.22;0.22;;;;;;;3.98;100.00;101681.75;5002742;28;20054;-81
2021/11/16 11:53:05;;;;;;;0.10;0.10;;;;;;;3.99;100.00;101682.59;5000153;28;20050;-80
2021/11/16 11:55:42;;;;;;;0.20;0.20;;;;;;;4.02;100.00;101685.69;5003247;28;20041;-80
2021/11/16 11:58:17;;;;;;;0.20;0.20;;;;;;;4.03;100.00;101684.66;4991531;28;20060;-80
2021/11/16 12:00:54;;;;;;;0.20;0.20;;;;;;;4.08;100.00;101681.31;4997687;28;20052;-81
2021/11/16 12:03:28;;;;;;;0.20;0.20;;;;;;;4.10;100.00;101681.94;4999698;28;20394;-82
2021/11/16 12:06:02;;;;;;;0.10;0.10;;;;;;;4.23;100.00;101687.28;4998492;28;20050;-81
2021/11/16 12:08:36;;;;;;;0.22;0.22;;;;;;;4.14;100.00;101674.25;4992528;28;20054;-81